Time;durP1;ratioP1;P1;durP2;ratioP2;P2;SDS_P1;SDS_P2;PMS_P1;PMS_P2;Temp;Humidity;BMP_temperature;BMP_pressure;BME280_temperature;BME280_humidity;BME280_pressure;Samples;Min_cycle;Max_cycle;Signal;HPM_P1;HPM_P2
2022/01/20 00:01:45;;;;;;;3.60;3.50;;;;;;;;;;4986596;28;20434;-66
2022/01/20 00:04:19;;;;;;;3.93;3.67;;;;;;;;;;4988359;28;20433;-73
2022/01/20 00:07:27;;;;;;;4.43;4.03;;;;;;;;;;4986245;28;20848;-67
2022/01/20 00:28:26;;;;;;;3.80;3.70;;;;;;;;;;4989096;28;20438;-66
2022/01/20 00:33:47;;;;;;;5.00;4.60;;;;;;;;;;4988574;28;21390;-68
2022/01/20 00:38:43;;;;;;;4.80;4.60;;;;;;;;;;4989062;28;20455;-67
2022/01/20 00:41:14;;;;;;;4.23;4.03;;;;;;;;;;4987734;28;20976;-71
2022/01/20 00:43:41;;;;;;;4.57;4.37;;;;;;;;;;4991192;28;20440;-71
2022/01/20 00:46:07;;;;;;;4.90;4.50;;;;;;;;;;4986893;28;20932;-67
2022/01/20 00:48:33;;;;;;;4.57;4.30;;;;;;;;;;4987055;28;20524;-67
2022/01/20 00:50:59;;;;;;;5.53;4.40;;;;;;;;;;4985165;28;20808;-66
2022/01/20 00:53:25;;;;;;;5.23;4.83;;;;;;;;;;4987216;28;20464;-66
2022/01/20 00:55:51;;;;;;;4.37;4.10;;;;;;;;;;4990664;28;20778;-66
2022/01/20 00:58:17;;;;;;;4.87;4.47;;;;;;;;;;4989081;28;20428;-66
2022/01/20 01:00:43;;;;;;;4.13;4.03;;;;;;;;;;4986484;28;20492;-66
2022/01/20 01:03:10;;;;;;;4.50;4.30;;;;;;;;;;4989570;28;20828;-66
2022/01/20 01:05:43;;;;;;;4.40;4.10;;;;;;;;;;4988041;28;20512;-66
2022/01/20 01:08:10;;;;;;;4.50;4.30;;;;;;;;;;4986010;28;20484;-66
2022/01/20 01:10:38;;;;;;;5.13;4.73;;;;;;;;;;4989754;28;20487;-66
2022/01/20 01:13:12;;;;;;;5.70;5.20;;;;;;;;;;4989129;28;20441;-67
2022/01/20 01:15:44;;;;;;;5.20;4.97;;;;;;;;;;4986345;28;20437;-68
2022/01/20 01:23:22;;;;;;;4.50;4.17;;;;;;;;;;4989223;28;20452;-67
2022/01/20 01:25:48;;;;;;;5.60;5.20;;;;;;;;;;4988116;28;20507;-66
2022/01/20 01:28:16;;;;;;;4.87;4.53;;;;;;;;;;4987191;28;20999;-67
2022/01/20 01:31:09;;;;;;;3.87;3.67;;;;;;;;;;4988064;28;20440;-67
2022/01/20 01:33:34;;;;;;;4.40;4.17;;;;;;;;;;4986790;28;20508;-67
2022/01/20 01:36:03;;;;;;;4.17;4.07;;;;;;;;;;4987419;28;20949;-66
2022/01/20 01:38:36;;;;;;;4.03;3.83;;;;;;;;;;4989453;28;20432;-66
2022/01/20 01:41:13;;;;;;;5.50;5.00;;;;;;;;;;4986699;28;20532;-66
2022/01/20 01:43:41;;;;;;;5.03;4.83;;;;;;;;;;4988547;28;20429;-66
2022/01/20 01:46:08;;;;;;;4.77;4.13;;;;;;;;;;4987436;28;20571;-66
2022/01/20 01:48:34;;;;;;;5.00;4.27;;;;;;;;;;4989363;28;20511;-66
2022/01/20 01:51:00;;;;;;;4.63;4.33;;;;;;;;;;4989279;28;20802;-67
2022/01/20 01:53:27;;;;;;;4.40;4.13;;;;;;;;;;4956984;28;20422;-67
2022/01/20 01:55:53;;;;;;;4.60;4.40;;;;;;;;;;4986365;28;20475;-67
2022/01/20 01:58:19;;;;;;;4.47;4.07;;;;;;;;;;4989060;28;20937;-67
2022/01/20 02:00:45;;;;;;;3.77;3.67;;;;;;;;;;4985912;28;20449;-68
2022/01/20 02:03:13;;;;;;;3.90;3.70;;;;;;;;;;4986074;28;20517;-66
2022/01/20 02:05:56;;;;;;;7.37;4.60;;;;;;;;;;4985642;28;20477;-66
2022/01/20 02:08:42;;;;;;;3.63;3.40;;;;;;;;;;4987894;28;21111;-66
2022/01/20 02:19:25;;;;;;;4.27;4.07;;;;;;;;;;4986586;28;20441;-68
2022/01/20 02:22:02;;;;;;;4.43;4.03;;;;;;;;;;4982279;28;20434;-66
2022/01/20 02:24:29;;;;;;;3.97;3.77;;;;;;;;;;4979886;28;20565;-66
2022/01/20 02:26:55;;;;;;;4.53;4.13;;;;;;;;;;4986200;28;20488;-68
2022/01/20 02:29:21;;;;;;;3.30;3.20;;;;;;;;;;4983595;28;20441;-66
2022/01/20 02:31:47;;;;;;;3.30;3.20;;;;;;;;;;4982287;28;20485;-67
2022/01/20 02:34:14;;;;;;;2.87;2.77;;;;;;;;;;4982478;28;20488;-68
2022/01/20 02:36:44;;;;;;;3.43;3.33;;;;;;;;;;4987066;28;20941;-67
2022/01/20 02:39:59;;;;;;;3.27;3.17;;;;;;;;;;4985979;28;20433;-66
2022/01/20 02:44:54;;;;;;;3.50;3.30;;;;;;;;;;4983956;28;20425;-75
2022/01/20 02:47:22;;;;;;;3.80;3.57;;;;;;;;;;4982168;28;20456;-66
2022/01/20 02:49:48;;;;;;;3.03;2.93;;;;;;;;;;4987161;28;20440;-66
2022/01/20 02:52:14;;;;;;;3.83;3.57;;;;;;;;;;4984252;28;20440;-67
2022/01/20 02:54:40;;;;;;;3.60;3.50;;;;;;;;;;4985752;28;20468;-67
2022/01/20 02:57:07;;;;;;;3.70;3.50;;;;;;;;;;4955200;28;20965;-66
2022/01/20 02:59:36;;;;;;;3.50;3.40;;;;;;;;;;4986595;28;20452;-66
2022/01/20 03:02:02;;;;;;;3.50;3.33;;;;;;;;;;4986865;28;20448;-72
2022/01/20 03:04:30;;;;;;;4.70;3.87;;;;;;;;;;4954943;28;20430;-66
2022/01/20 03:06:56;;;;;;;3.00;2.77;;;;;;;;;;4988229;28;20480;-68
2022/01/20 03:09:22;;;;;;;3.80;3.63;;;;;;;;;;4983607;28;20925;-71
2022/01/20 03:11:48;;;;;;;3.07;2.97;;;;;;;;;;4985194;28;20436;-71
2022/01/20 03:14:17;;;;;;;4.17;3.93;;;;;;;;;;4989564;28;20754;-66
2022/01/20 03:16:43;;;;;;;3.83;3.20;;;;;;;;;;4989477;28;20437;-66
2022/01/20 03:19:09;;;;;;;3.17;3.07;;;;;;;;;;4993064;28;20763;-66
2022/01/20 03:21:35;;;;;;;3.87;3.63;;;;;;;;;;4991532;28;20955;-66
2022/01/20 03:24:01;;;;;;;3.57;3.27;;;;;;;;;;4986612;28;20807;-66
2022/01/20 03:26:27;;;;;;;3.37;3.27;;;;;;;;;;4990191;28;20493;-66
2022/01/20 03:28:53;;;;;;;4.50;4.23;;;;;;;;;;4990372;28;20472;-66
2022/01/20 03:31:19;;;;;;;2.50;2.40;;;;;;;;;;4989355;28;20456;-67
2022/01/20 03:33:45;;;;;;;3.40;3.13;;;;;;;;;;4987589;28;20453;-66
2022/01/20 03:36:11;;;;;;;3.30;3.20;;;;;;;;;;4992541;28;20933;-66
2022/01/20 03:38:37;;;;;;;3.77;3.67;;;;;;;;;;4990189;28;20429;-66
2022/01/20 03:41:03;;;;;;;3.70;3.60;;;;;;;;;;4989985;28;20460;-66
2022/01/20 03:43:29;;;;;;;3.10;3.00;;;;;;;;;;4991849;28;20429;-68
2022/01/20 03:45:57;;;;;;;3.20;3.10;;;;;;;;;;4991682;28;20512;-66
2022/01/20 03:48:26;;;;;;;3.73;3.53;;;;;;;;;;4992093;28;20420;-66
2022/01/20 03:51:02;;;;;;;3.17;3.07;;;;;;;;;;4989181;28;20491;-66
2022/01/20 03:53:29;;;;;;;3.83;3.63;;;;;;;;;;4989529;28;20777;-65
2022/01/20 03:55:55;;;;;;;3.03;2.90;;;;;;;;;;4987903;28;20461;-66
2022/01/20 03:58:21;;;;;;;2.60;2.60;;;;;;;;;;4989272;28;20459;-66
2022/01/20 04:00:47;;;;;;;2.87;2.87;;;;;;;;;;4992392;28;20437;-66
2022/01/20 04:03:14;;;;;;;3.10;2.90;;;;;;;;;;4988203;28;20525;-66
2022/01/20 04:05:55;;;;;;;3.30;3.10;;;;;;;;;;4990714;28;20475;-65
2022/01/20 04:08:21;;;;;;;4.00;3.70;;;;;;;;;;4991952;28;20483;-67
2022/01/20 04:10:47;;;;;;;3.77;3.57;;;;;;;;;;4985789;28;20457;-67
2022/01/20 04:13:14;;;;;;;2.70;2.60;;;;;;;;;;4991848;28;20425;-66
2022/01/20 04:15:41;;;;;;;3.30;3.20;;;;;;;;;;4990781;28;20454;-68
2022/01/20 04:18:07;;;;;;;3.10;3.00;;;;;;;;;;4990782;28;20444;-66
2022/01/20 04:20:34;;;;;;;3.43;3.17;;;;;;;;;;4985490;28;20968;-66
2022/01/20 04:23:00;;;;;;;2.43;2.33;;;;;;;;;;4986394;28;20447;-69
2022/01/20 04:25:26;;;;;;;3.50;3.20;;;;;;;;;;4990603;28;20515;-66
2022/01/20 04:27:52;;;;;;;4.27;3.93;;;;;;;;;;4989863;28;20488;-66
2022/01/20 04:30:18;;;;;;;2.87;2.77;;;;;;;;;;4987287;28;20979;-68
2022/01/20 04:32:44;;;;;;;3.80;3.60;;;;;;;;;;4991518;28;20461;-69
2022/01/20 04:35:10;;;;;;;3.13;3.03;;;;;;;;;;4983877;28;20948;-70
2022/01/20 04:37:36;;;;;;;3.10;3.00;;;;;;;;;;4990934;28;21764;-71
2022/01/20 04:40:03;;;;;;;3.47;3.37;;;;;;;;;;4988289;28;20441;-68
2022/01/20 04:42:32;;;;;;;3.77;3.57;;;;;;;;;;4988929;28;20823;-70
2022/01/20 04:45:04;;;;;;;3.50;3.37;;;;;;;;;;4988934;28;20444;-67
2022/01/20 04:58:10;;;;;;;3.40;3.30;;;;;;;;;;4990570;28;20786;-67
2022/01/20 05:00:36;;;;;;;3.83;3.60;;;;;;;;;;4989072;28;20441;-67
2022/01/20 05:03:04;;;;;;;3.10;3.00;;;;;;;;;;4986260;28;20480;-69
2022/01/20 05:05:30;;;;;;;2.77;2.67;;;;;;;;;;4990552;28;20468;-68
2022/01/20 05:07:56;;;;;;;3.27;3.00;;;;;;;;;;4988654;28;21079;-72
2022/01/20 05:10:24;;;;;;;3.00;2.80;;;;;;;;;;4990394;28;20425;-67
2022/01/20 05:15:19;;;;;;;3.13;3.00;;;;;;;;;;4989226;28;20441;-75
2022/01/20 05:17:45;;;;;;;3.50;3.30;;;;;;;;;;4990064;28;20469;-74
2022/01/20 05:20:11;;;;;;;3.20;3.10;;;;;;;;;;4986226;28;20475;-72
2022/01/20 05:22:37;;;;;;;3.17;3.03;;;;;;;;;;4987747;28;20448;-74
2022/01/20 05:25:03;;;;;;;3.87;3.57;;;;;;;;;;4990911;28;20917;-71
2022/01/20 05:27:30;;;;;;;3.10;3.00;;;;;;;;;;4980398;28;20445;-67
2022/01/20 05:29:55;;;;;;;2.67;2.47;;;;;;;;;;4985612;28;20433;-66
2022/01/20 05:32:22;;;;;;;2.80;2.60;;;;;;;;;;4988851;28;20456;-66
2022/01/20 05:34:48;;;;;;;2.90;2.70;;;;;;;;;;4988488;28;20515;-66
2022/01/20 05:37:14;;;;;;;3.40;3.30;;;;;;;;;;4990901;28;20421;-68
2022/01/20 05:39:41;;;;;;;2.77;2.67;;;;;;;;;;4988379;28;20437;-68
2022/01/20 05:42:07;;;;;;;3.07;3.00;;;;;;;;;;4989478;28;20473;-67
2022/01/20 05:44:33;;;;;;;2.93;2.73;;;;;;;;;;4989498;28;20495;-71
2022/01/20 05:47:05;;;;;;;2.80;2.77;;;;;;;;;;4990854;28;20563;-68
2022/01/20 05:49:31;;;;;;;4.20;2.43;;;;;;;;;;4990254;28;20413;-68
2022/01/20 05:51:57;;;;;;;3.17;2.90;;;;;;;;;;4988939;28;20453;-68
2022/01/20 05:54:23;;;;;;;2.93;2.83;;;;;;;;;;4988844;28;20453;-68
2022/01/20 05:56:49;;;;;;;2.73;2.73;;;;;;;;;;4990463;28;20417;-71
2022/01/20 05:59:15;;;;;;;2.70;2.60;;;;;;;;;;4988598;28;20449;-70
2022/01/20 06:01:41;;;;;;;3.27;3.17;;;;;;;;;;4989176;28;20787;-71
2022/01/20 06:04:09;;;;;;;2.77;2.77;;;;;;;;;;4988352;28;20448;-73
2022/01/20 06:06:36;;;;;;;2.67;2.67;;;;;;;;;;4989987;28;20484;-69
2022/01/20 06:09:04;;;;;;;3.67;3.50;;;;;;;;;;4980824;28;20481;-67
2022/01/20 06:11:30;;;;;;;4.13;3.27;;;;;;;;;;4985505;28;20441;-67
2022/01/20 06:13:57;;;;;;;3.83;3.20;;;;;;;;;;4989622;28;20874;-67
2022/01/20 06:16:23;;;;;;;2.90;2.70;;;;;;;;;;4987572;28;20481;-66
2022/01/20 06:18:49;;;;;;;3.63;3.37;;;;;;;;;;4989740;28;20448;-67
2022/01/20 06:21:15;;;;;;;3.90;3.80;;;;;;;;;;4989566;28;20947;-68
2022/01/20 06:23:41;;;;;;;3.43;3.23;;;;;;;;;;4987925;28;20444;-66
2022/01/20 06:26:07;;;;;;;2.30;2.30;;;;;;;;;;4987118;28;20492;-66
2022/01/20 06:28:34;;;;;;;3.13;3.00;;;;;;;;;;4986071;28;20711;-69
2022/01/20 06:31:00;;;;;;;2.47;2.37;;;;;;;;;;4989747;28;20453;-69
2022/01/20 06:33:26;;;;;;;3.50;3.40;;;;;;;;;;4987428;28;20428;-67
2022/01/20 06:35:52;;;;;;;2.90;2.90;;;;;;;;;;4985307;28;21742;-67
2022/01/20 06:38:18;;;;;;;2.27;2.27;;;;;;;;;;4986735;28;20458;-67
2022/01/20 06:40:44;;;;;;;2.50;2.43;;;;;;;;;;4986760;28;20953;-69
2022/01/20 06:43:10;;;;;;;2.50;2.50;;;;;;;;;;4989511;28;20462;-66
2022/01/20 06:45:36;;;;;;;2.57;2.47;;;;;;;;;;4989732;28;20534;-68
2022/01/20 06:48:03;;;;;;;2.80;2.70;;;;;;;;;;4990110;28;20425;-67
2022/01/20 06:50:29;;;;;;;2.47;2.47;;;;;;;;;;4983214;28;20441;-66
2022/01/20 06:52:55;;;;;;;2.73;2.63;;;;;;;;;;4994727;28;20449;-67
2022/01/20 06:55:21;;;;;;;2.20;2.20;;;;;;;;;;4991225;28;20437;-66
2022/01/20 06:57:47;;;;;;;2.50;2.30;;;;;;;;;;4991121;28;20539;-74
2022/01/20 07:00:18;;;;;;;4.97;2.30;;;;;;;;;;4989302;28;20436;-73
2022/01/20 07:02:47;;;;;;;2.37;2.37;;;;;;;;;;4993559;28;20559;-71
2022/01/20 07:05:17;;;;;;;2.40;2.40;;;;;;;;;;4986852;28;20467;-67
2022/01/20 07:07:43;;;;;;;2.67;2.57;;;;;;;;;;4993341;28;20476;-66
2022/01/20 07:10:13;;;;;;;2.10;2.07;;;;;;;;;;4988898;28;20446;-67
2022/01/20 07:12:39;;;;;;;2.37;2.37;;;;;;;;;;4988438;28;20449;-66
2022/01/20 07:15:06;;;;;;;2.77;2.27;;;;;;;;;;4987174;28;20838;-66
2022/01/20 07:17:32;;;;;;;1.60;1.60;;;;;;;;;;4988093;28;20446;-65
2022/01/20 07:19:58;;;;;;;2.17;2.07;;;;;;;;;;4987879;28;20550;-67
2022/01/20 07:22:24;;;;;;;2.30;2.20;;;;;;;;;;4989223;28;20437;-67
2022/01/20 07:24:50;;;;;;;2.33;2.33;;;;;;;;;;4986591;28;20440;-66
2022/01/20 07:27:16;;;;;;;2.00;2.00;;;;;;;;;;4990599;28;20996;-69
2022/01/20 07:29:42;;;;;;;2.37;2.27;;;;;;;;;;4988402;28;20827;-67
2022/01/20 07:32:08;;;;;;;2.50;1.80;;;;;;;;;;4991287;28;20441;-68
2022/01/20 07:34:35;;;;;;;2.40;2.27;;;;;;;;;;4992230;28;20417;-67
2022/01/20 07:37:02;;;;;;;2.87;1.90;;;;;;;;;;4992841;28;20428;-67
2022/01/20 07:39:28;;;;;;;2.67;2.57;;;;;;;;;;4988073;28;20425;-66
2022/01/20 07:41:54;;;;;;;1.70;1.70;;;;;;;;;;4988448;28;20917;-67
2022/01/20 07:44:20;;;;;;;2.13;2.03;;;;;;;;;;4982143;28;20469;-68
2022/01/20 07:46:47;;;;;;;3.07;2.00;;;;;;;;;;4990797;28;20492;-68
2022/01/20 07:49:13;;;;;;;2.20;2.10;;;;;;;;;;4989510;28;20449;-63
2022/01/20 07:51:39;;;;;;;2.10;2.10;;;;;;;;;;4985914;28;20548;-81
2022/01/20 07:54:05;;;;;;;2.03;1.93;;;;;;;;;;4990896;28;20532;-68
2022/01/20 07:56:31;;;;;;;2.10;2.00;;;;;;;;;;4987132;28;20878;-69
2022/01/20 07:58:57;;;;;;;4.60;1.83;;;;;;;;;;4991560;28;20508;-68
2022/01/20 08:01:27;;;;;;;1.87;1.87;;;;;;;;;;4986756;28;20452;-68
2022/01/20 08:03:53;;;;;;;1.83;1.80;;;;;;;;;;4991828;28;20914;-73
2022/01/20 08:06:19;;;;;;;2.07;2.07;;;;;;;;;;4992063;28;20477;-71
2022/01/20 08:08:46;;;;;;;2.37;2.37;;;;;;;;;;4984726;28;20478;-67
2022/01/20 08:11:12;;;;;;;1.53;1.53;;;;;;;;;;4985083;28;20449;-66
2022/01/20 08:13:38;;;;;;;1.67;1.67;;;;;;;;;;4991959;28;20460;-67
2022/01/20 08:16:04;;;;;;;2.87;2.07;;;;;;;;;;4991646;28;20461;-67
2022/01/20 08:18:33;;;;;;;1.53;1.53;;;;;;;;;;4988907;28;20422;-68
2022/01/20 08:20:59;;;;;;;1.70;1.70;;;;;;;;;;4990345;28;20456;-66
2022/01/20 08:23:25;;;;;;;2.03;1.93;;;;;;;;;;4990798;28;20568;-66
2022/01/20 08:25:51;;;;;;;1.77;1.77;;;;;;;;;;4991879;28;20834;-66
2022/01/20 08:28:20;;;;;;;1.87;1.77;;;;;;;;;;4990345;28;20444;-66
2022/01/20 08:30:46;;;;;;;2.00;1.90;;;;;;;;;;4991977;28;20906;-66
2022/01/20 08:33:12;;;;;;;1.77;1.67;;;;;;;;;;4991035;28;20440;-66
2022/01/20 08:35:39;;;;;;;1.90;1.90;;;;;;;;;;4991431;28;20916;-69
2022/01/20 08:38:07;;;;;;;1.47;1.47;;;;;;;;;;4989336;28;20463;-67
2022/01/20 08:40:33;;;;;;;1.60;1.50;;;;;;;;;;4990215;28;20433;-67
2022/01/20 08:42:59;;;;;;;2.20;2.10;;;;;;;;;;4991047;28;20429;-66
2022/01/20 08:45:27;;;;;;;1.67;1.67;;;;;;;;;;4991501;28;20511;-66
2022/01/20 08:47:55;;;;;;;1.60;1.50;;;;;;;;;;4990287;28;21000;-67
2022/01/20 08:50:22;;;;;;;2.30;2.20;;;;;;;;;;4990146;28;20949;-68
2022/01/20 08:52:48;;;;;;;1.80;1.80;;;;;;;;;;4990311;28;20448;-66
2022/01/20 08:55:14;;;;;;;1.93;1.83;;;;;;;;;;4991911;28;20567;-65
2022/01/20 08:57:40;;;;;;;1.73;1.73;;;;;;;;;;4990908;28;20441;-68
2022/01/20 09:00:07;;;;;;;1.50;1.50;;;;;;;;;;4990997;28;20434;-68
2022/01/20 09:02:33;;;;;;;1.80;1.80;;;;;;;;;;4988360;28;20998;-65
2022/01/20 09:05:00;;;;;;;2.40;2.30;;;;;;;;;;4990967;28;20926;-66
2022/01/20 09:07:27;;;;;;;1.90;1.80;;;;;;;;;;4990963;28;20847;-66
2022/01/20 09:09:55;;;;;;;1.80;1.80;;;;;;;;;;4990978;28;20413;-67
2022/01/20 09:17:45;;;;;;;1.53;1.53;;;;;;;;;;4987191;28;20435;-66
2022/01/20 09:20:11;;;;;;;2.03;2.03;;;;;;;;;;4990141;28;20427;-66
2022/01/20 09:22:38;;;;;;;2.40;2.17;;;;;;;;;;4990420;28;20479;-69
2022/01/20 09:25:05;;;;;;;2.43;2.30;;;;;;;;;;4985502;28;20463;-65
2022/01/20 09:27:31;;;;;;;2.17;2.10;;;;;;;;;;4989285;28;20898;-66
2022/01/20 09:29:57;;;;;;;1.77;1.77;;;;;;;;;;4990266;28;20428;-72
2022/01/20 09:32:25;;;;;;;2.10;2.10;;;;;;;;;;4987914;28;20480;-72
2022/01/20 09:34:51;;;;;;;2.30;2.20;;;;;;;;;;4986691;28;20429;-66
2022/01/20 09:37:17;;;;;;;2.07;2.07;;;;;;;;;;4987573;28;20441;-69
2022/01/20 09:39:45;;;;;;;1.90;1.90;;;;;;;;;;4986541;28;20445;-69
2022/01/20 09:42:11;;;;;;;3.40;3.17;;;;;;;;;;4986575;28;20440;-66
2022/01/20 09:44:42;;;;;;;1.93;1.93;;;;;;;;;;4988285;28;20429;-67
2022/01/20 09:47:08;;;;;;;3.03;2.93;;;;;;;;;;4988102;28;20481;-71
2022/01/20 09:49:34;;;;;;;3.37;3.03;;;;;;;;;;4988542;28;20440;-67
2022/01/20 09:52:00;;;;;;;2.90;2.80;;;;;;;;;;4985232;28;20455;-68
2022/01/20 09:54:25;;;;;;;2.73;2.53;;;;;;;;;;4988201;28;20840;-70
2022/01/20 09:56:51;;;;;;;3.20;3.10;;;;;;;;;;4987371;28;20556;-73
2022/01/20 09:59:17;;;;;;;3.10;2.90;;;;;;;;;;4989105;28;20421;-68
2022/01/20 10:01:45;;;;;;;2.60;2.50;;;;;;;;;;4984843;28;20552;-66
2022/01/20 10:04:25;;;;;;;3.20;3.10;;;;;;;;;;4986743;28;20440;-75
2022/01/20 10:07:01;;;;;;;2.37;2.37;;;;;;;;;;4985384;28;20580;-67
2022/01/20 10:09:49;;;;;;;2.40;2.30;;;;;;;;;;4983150;28;20845;-67
2022/01/20 10:12:15;;;;;;;3.23;2.93;;;;;;;;;;4984029;28;20464;-66
2022/01/20 10:14:42;;;;;;;2.40;2.30;;;;;;;;;;4980849;28;20440;-67
2022/01/20 10:17:21;;;;;;;2.47;2.43;;;;;;;;;;4987840;28;20511;-67
2022/01/20 10:19:50;;;;;;;2.90;2.90;;;;;;;;;;4986410;28;20811;-66
2022/01/20 10:22:17;;;;;;;2.83;2.73;;;;;;;;;;4981782;28;20452;-66
2022/01/20 10:24:56;;;;;;;5.00;4.70;;;;;;;;;;4987082;28;20865;-65
2022/01/20 10:27:22;;;;;;;4.13;3.33;;;;;;;;;;4993599;28;20531;-67
2022/01/20 10:29:59;;;;;;;3.20;3.00;;;;;;;;;;4992478;28;20444;-70
2022/01/20 10:32:26;;;;;;;3.60;3.40;;;;;;;;;;4993796;28;20487;-69
2022/01/20 10:35:05;;;;;;;3.57;3.47;;;;;;;;;;4992518;28;20421;-69
2022/01/20 10:37:31;;;;;;;4.00;3.13;;;;;;;;;;4990741;28;20499;-69
2022/01/20 10:40:23;;;;;;;3.10;3.00;;;;;;;;;;4992783;28;20437;-69
2022/01/20 10:42:49;;;;;;;19.37;14.13;;;;;;;;;;4991870;28;20949;-67
2022/01/20 10:45:23;;;;;;;4.68;4.53;;;;;;;;;;4993492;28;20350;-72
2022/01/20 10:47:53;;;;;;;4.17;3.97;;;;;;;;;;4990296;28;21152;-70
2022/01/20 10:50:23;;;;;;;5.30;4.97;;;;;;;;;;4991257;28;20436;-69
2022/01/20 10:52:50;;;;;;;11.33;8.83;;;;;;;;;;4992276;28;20461;-71
2022/01/20 10:55:27;;;;;;;6.17;5.67;;;;;;;;;;4993614;28;20917;-76
2022/01/20 10:57:54;;;;;;;5.73;5.00;;;;;;;;;;4993807;28;20428;-70
2022/01/20 11:00:21;;;;;;;3.10;3.00;;;;;;;;;;4992815;28;20487;-72
2022/01/20 11:02:55;;;;;;;4.30;3.90;;;;;;;;;;4992059;28;21120;-75
2022/01/20 11:05:22;;;;;;;4.10;4.00;;;;;;;;;;4987388;28;21052;-74
2022/01/20 11:07:48;;;;;;;4.20;3.80;;;;;;;;;;4993313;28;20858;-73
2022/01/20 11:10:16;;;;;;;5.00;3.87;;;;;;;;;;4992622;28;20457;-69
2022/01/20 11:12:42;;;;;;;4.10;3.93;;;;;;;;;;4993059;28;20516;-77
2022/01/20 11:15:10;;;;;;;4.47;4.20;;;;;;;;;;4990829;28;20473;-79
2022/01/20 11:17:40;;;;;;;5.70;5.30;;;;;;;;;;4990452;28;20461;-72
2022/01/20 11:20:11;;;;;;;3.67;3.57;;;;;;;;;;4992432;28;20421;-78
2022/01/20 11:22:38;;;;;;;3.90;3.70;;;;;;;;;;4992978;28;20829;-78
2022/01/20 11:25:06;;;;;;;4.47;4.17;;;;;;;;;;4993082;28;20448;-74
2022/01/20 11:27:40;;;;;;;9.30;8.50;;;;;;;;;;4992967;28;20539;-72
2022/01/20 11:30:16;;;;;;;25.27;14.40;;;;;;;;;;4992623;28;20433;-73
2022/01/20 11:32:45;;;;;;;62.27;31.03;;;;;;;;;;4991607;28;20575;-68
2022/01/20 11:35:13;;;;;;;91.87;43.03;;;;;;;;;;4990072;28;20467;-72
2022/01/20 11:37:40;;;;;;;58.67;34.80;;;;;;;;;;4991824;28;20417;-79
2022/01/20 11:40:09;;;;;;;12.20;10.90;;;;;;;;;;4982207;28;20528;-75
2022/01/20 11:42:35;;;;;;;5.10;4.70;;;;;;;;;;4990364;28;20448;-76
2022/01/20 11:45:01;;;;;;;5.80;5.30;;;;;;;;;;4992085;28;20409;-69
2022/01/20 11:47:31;;;;;;;3.80;3.50;;;;;;;;;;4982270;28;21004;-72
2022/01/20 11:49:58;;;;;;;3.70;3.50;;;;;;;;;;4991700;28;20540;-76
2022/01/20 11:52:25;;;;;;;3.77;3.67;;;;;;;;;;4983297;28;20473;-77
2022/01/20 11:54:51;;;;;;;4.47;4.37;;;;;;;;;;4985886;28;20441;-76
2022/01/20 11:57:21;;;;;;;5.73;5.30;;;;;;;;;;4985824;28;21045;-75
2022/01/20 11:59:56;;;;;;;4.83;4.53;;;;;;;;;;4976228;28;20780;-73
2022/01/20 12:02:32;;;;;;;3.57;3.37;;;;;;;;;;4987036;28;20532;-76
2022/01/20 12:05:04;;;;;;;3.47;3.27;;;;;;;;;;4990419;28;20425;-72
2022/01/20 12:07:32;;;;;;;4.30;4.00;;;;;;;;;;4990232;28;20511;-71
2022/01/20 12:10:09;;;;;;;5.10;4.63;;;;;;;;;;4982443;28;20450;-67
2022/01/20 12:12:36;;;;;;;6.97;6.33;;;;;;;;;;4985660;28;20455;-74
2022/01/20 12:15:08;;;;;;;3.70;3.47;;;;;;;;;;4983158;28;20437;-67
2022/01/20 12:17:34;;;;;;;2.53;2.40;;;;;;;;;;4969800;28;20462;-71
2022/01/20 12:20:00;;;;;;;2.90;2.80;;;;;;;;;;4989867;28;20444;-77
2022/01/20 12:22:26;;;;;;;2.87;2.77;;;;;;;;;;4987982;28;20464;-73
2022/01/20 12:24:53;;;;;;;2.97;2.87;;;;;;;;;;4988554;28;20434;-71
2022/01/20 12:27:20;;;;;;;4.00;3.70;;;;;;;;;;4991412;28;20515;-66
2022/01/20 12:29:46;;;;;;;2.90;2.80;;;;;;;;;;4984345;28;20499;-70
2022/01/20 12:32:13;;;;;;;4.50;2.60;;;;;;;;;;4987930;28;20479;-67
2022/01/20 12:34:40;;;;;;;3.10;2.90;;;;;;;;;;4988038;28;20437;-69
2022/01/20 12:37:06;;;;;;;3.97;2.97;;;;;;;;;;4990157;28;20441;-72
2022/01/20 12:39:34;;;;;;;4.80;4.40;;;;;;;;;;4981649;28;21016;-71
2022/01/20 12:42:02;;;;;;;3.10;2.90;;;;;;;;;;4985187;28;20445;-70
2022/01/20 12:44:41;;;;;;;3.07;2.97;;;;;;;;;;4990987;28;20429;-70
2022/01/20 12:47:08;;;;;;;7.23;2.20;;;;;;;;;;4984267;28;20492;-73
2022/01/20 12:49:34;;;;;;;1.93;1.93;;;;;;;;;;4982890;28;20445;-71
2022/01/20 12:52:00;;;;;;;2.63;2.43;;;;;;;;;;4986780;28;20828;-68
2022/01/20 12:54:30;;;;;;;3.60;3.40;;;;;;;;;;4986530;28;20442;-69
2022/01/20 12:56:57;;;;;;;2.50;2.40;;;;;;;;;;4987000;28;20957;-77
2022/01/20 12:59:43;;;;;;;3.03;2.80;;;;;;;;;;4988627;28;20502;-75
2022/01/20 13:02:09;;;;;;;2.97;2.47;;;;;;;;;;4988150;28;20445;-69
2022/01/20 13:04:36;;;;;;;3.60;3.50;;;;;;;;;;4988635;28;21083;-71
2022/01/20 13:07:03;;;;;;;3.87;3.60;;;;;;;;;;4990126;28;20623;-72
2022/01/20 13:09:44;;;;;;;8.60;4.47;;;;;;;;;;4986068;28;20480;-69
2022/01/20 13:12:14;;;;;;;4.73;4.23;;;;;;;;;;4986990;28;20445;-67
2022/01/20 13:14:47;;;;;;;4.00;3.70;;;;;;;;;;4978209;28;20760;-68
2022/01/20 13:17:19;;;;;;;2.00;1.83;;;;;;;;;;4982152;28;20441;-68
2022/01/20 13:19:48;;;;;;;1.60;1.50;;;;;;;;;;4990829;28;20512;-67
2022/01/20 13:22:22;;;;;;;1.33;1.00;;;;;;;;;;4989224;28;20458;-70
2022/01/20 13:24:48;;;;;;;3.03;1.53;;;;;;;;;;4982986;28;20433;-69
2022/01/20 13:27:14;;;;;;;3.07;1.63;;;;;;;;;;4985658;28;20567;-68
2022/01/20 13:29:45;;;;;;;0.97;0.97;;;;;;;;;;4986336;28;20890;-66
2022/01/20 13:32:11;;;;;;;3.57;1.50;;;;;;;;;;4968080;28;20429;-66
2022/01/20 13:34:37;;;;;;;3.03;1.30;;;;;;;;;;4985231;28;20476;-70
2022/01/20 13:37:04;;;;;;;6.67;2.00;;;;;;;;;;4986618;28;20556;-74
2022/01/20 13:39:34;;;;;;;1.33;1.23;;;;;;;;;;4986005;28;20449;-69
2022/01/20 13:42:11;;;;;;;1.43;1.20;;;;;;;;;;4989149;28;20429;-66
2022/01/20 13:47:22;;;;;;;1.40;1.40;;;;;;;;;;4990204;28;20507;-66
2022/01/20 13:49:50;;;;;;;5.47;2.17;;;;;;;;;;4988626;28;20421;-66
2022/01/20 13:52:18;;;;;;;1.40;1.30;;;;;;;;;;4987746;28;20524;-69
2022/01/20 13:54:52;;;;;;;3.03;1.80;;;;;;;;;;4988245;28;20441;-67
2022/01/20 13:57:20;;;;;;;5.30;1.90;;;;;;;;;;4988548;28;20428;-66
2022/01/20 13:59:47;;;;;;;1.93;1.70;;;;;;;;;;4988723;28;20425;-71
2022/01/20 14:02:13;;;;;;;2.70;1.77;;;;;;;;;;4988440;28;20421;-69
2022/01/20 14:04:39;;;;;;;5.20;3.70;;;;;;;;;;4988738;28;20553;-66
2022/01/20 14:07:05;;;;;;;3.00;1.77;;;;;;;;;;4990138;28;20485;-67
2022/01/20 14:09:31;;;;;;;6.77;2.10;;;;;;;;;;4986081;28;20479;-66
2022/01/20 14:11:57;;;;;;;12.67;3.27;;;;;;;;;;4988412;28;20937;-65
2022/01/20 14:14:23;;;;;;;3.80;3.10;;;;;;;;;;4990088;28;21072;-66
2022/01/20 14:16:49;;;;;;;2.10;1.37;;;;;;;;;;4990563;28;20452;-67
2022/01/20 14:19:22;;;;;;;6.93;1.97;;;;;;;;;;4986400;28;20435;-74
2022/01/20 14:21:48;;;;;;;4.70;1.87;;;;;;;;;;4990107;28;20459;-70
2022/01/20 14:24:14;;;;;;;2.03;1.73;;;;;;;;;;4990186;28;20441;-66
2022/01/20 14:26:44;;;;;;;2.30;1.30;;;;;;;;;;4990250;28;20508;-66
2022/01/20 14:29:10;;;;;;;3.57;3.30;;;;;;;;;;4974969;28;20441;-66
2022/01/20 14:31:36;;;;;;;2.30;1.90;;;;;;;;;;4981671;28;20453;-68
2022/01/20 14:34:02;;;;;;;1.77;1.43;;;;;;;;;;4986154;28;20442;-71
2022/01/20 14:36:28;;;;;;;3.47;1.93;;;;;;;;;;4988737;28;20512;-66
2022/01/20 14:38:54;;;;;;;4.67;2.13;;;;;;;;;;4987800;28;20553;-66
2022/01/20 14:41:20;;;;;;;9.07;1.70;;;;;;;;;;4985695;28;20484;-66
2022/01/20 14:43:46;;;;;;;6.03;2.00;;;;;;;;;;4990310;28;20440;-66
2022/01/20 14:46:12;;;;;;;2.67;2.13;;;;;;;;;;4988632;28;20831;-67
2022/01/20 14:48:38;;;;;;;3.60;1.60;;;;;;;;;;4988056;28;20437;-70
2022/01/20 14:51:04;;;;;;;6.00;2.40;;;;;;;;;;4987921;28;20453;-72
2022/01/20 14:53:31;;;;;;;4.27;2.97;;;;;;;;;;4988117;28;20433;-73
2022/01/20 14:55:58;;;;;;;4.90;3.50;;;;;;;;;;4989967;28;20437;-65
2022/01/20 14:58:24;;;;;;;15.70;5.40;;;;;;;;;;4989786;28;20433;-67
2022/01/20 15:00:50;;;;;;;7.90;4.40;;;;;;;;;;4987779;28;20883;-67
2022/01/20 15:03:16;;;;;;;8.93;3.53;;;;;;;;;;4985708;28;20465;-69
2022/01/20 15:05:42;;;;;;;5.50;3.30;;;;;;;;;;4987218;28;20515;-67
2022/01/20 15:08:08;;;;;;;2.07;1.90;;;;;;;;;;4989046;28;20851;-68
2022/01/20 15:10:34;;;;;;;2.73;2.07;;;;;;;;;;4989542;28;20421;-65
2022/01/20 15:13:01;;;;;;;2.53;1.93;;;;;;;;;;4990136;28;20500;-65
2022/01/20 15:15:28;;;;;;;3.50;2.53;;;;;;;;;;4991247;28;20471;-69
2022/01/20 15:17:55;;;;;;;7.27;4.63;;;;;;;;;;4992970;28;20425;-69
2022/01/20 15:20:21;;;;;;;7.13;4.90;;;;;;;;;;4992476;28;20816;-66
2022/01/20 15:22:47;;;;;;;3.13;0.90;;;;;;;;;;4993317;28;20436;-69
2022/01/20 15:25:13;;;;;;;2.47;0.70;;;;;;;;;;4987720;28;20534;-76
2022/01/20 15:27:39;;;;;;;1.60;0.60;;;;;;;;;;4992265;28;20480;-66
2022/01/20 15:30:06;;;;;;;1.00;0.90;;;;;;;;;;4990406;28;20433;-70
2022/01/20 15:32:32;;;;;;;0.90;0.60;;;;;;;;;;4993030;28;20856;-68
2022/01/20 15:34:58;;;;;;;2.03;0.90;;;;;;;;;;4987744;28;20457;-68
2022/01/20 15:37:24;;;;;;;1.00;0.87;;;;;;;;;;4991775;28;20441;-66
2022/01/20 15:39:50;;;;;;;7.27;3.73;;;;;;;;;;4990812;28;20520;-66
2022/01/20 15:42:16;;;;;;;3.13;1.00;;;;;;;;;;4992618;28;20428;-68
2022/01/20 15:44:42;;;;;;;2.30;2.10;;;;;;;;;;4990182;28;20472;-69
2022/01/20 15:47:08;;;;;;;3.90;1.20;;;;;;;;;;4988746;28;20489;-74
2022/01/20 15:49:34;;;;;;;1.50;1.40;;;;;;;;;;4988422;28;20429;-71